Airfield :







YOU CAN JOIN US ON...

 
LOGIN :

Register | Disclaimer

   EN    FR    IT 

 









Legend :    VFR   Marginal VFR   IFR   Intensive IFR   Very Intensive IFR
Visi :
Ceiling :
>= 8 km
>= 3000ft
5 to 8 km
1000 to 3000 ft
1500m to 5 km
500 to 1000 ft
800 to 1500m
200 to 500 ft
< 800m
< 200 ft
Symbols :   Thunderstorms  Fog  Heavy snow  Heavy precipitations  Wind > 20 kt







- Airport Elevation : 160 ft
- IATA code : YYG


CYYG - Charlottetown

CURRENT METAR :
  • 260000Z 01010KT 8SM -DZ OVC005 00/00 A2992 RMK ST8 SLP134

EXPIRED METARs :
  • 252354Z 36008G16KT 8SM -DZ OVC004 00/00 A2992 RMK ST8 SLP135
  • 252345Z 36008G16KT 5SM -RASN BR OVC004 00/00 A2991 RMK SF8 SLP133
  • 252300Z 01010G17KT 3SM -DZ BR OVC004 00/00 A2988 RMK SF8 SLP123
  • 252200Z 36011KT 330V030 2SM -DZ BR OVC004 00/00 A2987 RMK SF8 SLP119
  • 252140Z 36010G17KT 2SM -DZ BR OVC004 01/01 A2987 RMK SF8 SLP119
  • 252100Z 36010G16KT 2 1/2SM -DZ BR OVC006 01/01 A2986 RMK SF8 SLP116

TAF TAF CYYG
Valid from the 26 at 00:00 until the 26 at 12:00 UTC


252338Z 2600/2612 01012KT 2SM -DZ -SN BR OVC004
TEMPO 2600/2602 6SM BR SCT004 OVC008
PROB30 2600/2602 3SM -FZDZ BR
FM260200 32008KT 5SM -SN BKN005 BKN010
TEMPO 2602/2608 P6SM NSW SCT005 BKN010
FM260800 32008KT P6SM BKN008
TEMPO 2608/2612 SCT008 RMK NXT FCST BY 260600Z
CZQM FIR / North America



MET'MAP, your aeronautical weather chart ! - Copyright ORBIFLY December 2007 - Disclaimer

ORBIFLY MET'MAP TEAM :

Programming & Development : Alexandra Zaïnal
Concept & Development : Baudouin d'Aumeries
Co-Development & Prog : Marc-Olivier Méhu
Technical & hardware support : Manuel Goepfert

Contact : metmap@orbifly.com




SOURCES & CREDITS :

   NOAA